Time;durP1;ratioP1;P1;durP2;ratioP2;P2;SDS_P1;SDS_P2;PMS_P1;PMS_P2;Temp;Humidity;BMP_temperature;BMP_pressure;BME280_temperature;BME280_humidity;BME280_pressure;Samples;Min_cycle;Max_cycle;Signal;HPM_P1;HPM_P2
2022/06/14 00:01:18;;;;;;;7.53;2.87;;;;;;;;;;4974206;28;20426;-51
2022/06/14 00:03:45;;;;;;;4.00;3.07;;;;;;;;;;4974339;28;20441;-52
2022/06/14 00:06:11;;;;;;;6.27;2.97;;;;;;;;;;4974629;28;20464;-52
2022/06/14 00:08:38;;;;;;;9.83;3.57;;;;;;;;;;4974448;28;20421;-53
2022/06/14 00:11:09;;;;;;;7.10;4.70;;;;;;;;;;4974447;28;20479;-53
2022/06/14 00:13:35;;;;;;;3.20;2.77;;;;;;;;;;4974175;28;20956;-52
2022/06/14 00:16:01;;;;;;;5.20;3.40;;;;;;;;;;4974173;28;20913;-52
2022/06/14 00:18:27;;;;;;;5.13;3.37;;;;;;;;;;4974428;28;20831;-52
2022/06/14 00:20:53;;;;;;;3.00;2.80;;;;;;;;;;4974277;28;20421;-52
2022/06/14 00:23:19;;;;;;;3.40;2.83;;;;;;;;;;4973895;28;20483;-52
2022/06/14 00:25:46;;;;;;;7.53;3.30;;;;;;;;;;4974279;28;20500;-52
2022/06/14 00:28:14;;;;;;;8.60;3.50;;;;;;;;;;4973908;28;20425;-53
2022/06/14 00:30:41;;;;;;;10.60;3.00;;;;;;;;;;4974011;28;20424;-51
2022/06/14 00:33:07;;;;;;;6.00;3.20;;;;;;;;;;4973693;28;20442;-52
2022/06/14 00:35:34;;;;;;;7.20;3.43;;;;;;;;;;4974022;28;20437;-52
2022/06/14 00:38:00;;;;;;;4.57;3.10;;;;;;;;;;4973957;28;20775;-52
2022/06/14 00:40:28;;;;;;;7.10;3.23;;;;;;;;;;4973914;28;20555;-52
2022/06/14 00:42:54;;;;;;;3.90;3.10;;;;;;;;;;4973376;28;20479;-52
2022/06/14 00:45:23;;;;;;;5.73;3.70;;;;;;;;;;4973136;28;20449;-52
2022/06/14 00:47:51;;;;;;;7.63;3.63;;;;;;;;;;4973644;28;20417;-52
2022/06/14 00:50:22;;;;;;;4.90;3.63;;;;;;;;;;4973712;28;20805;-52
2022/06/14 00:52:51;;;;;;;6.00;3.53;;;;;;;;;;4973652;28;20784;-51
2022/06/14 00:55:21;;;;;;;6.73;3.67;;;;;;;;;;4972950;28;20468;-52
2022/06/14 00:57:51;;;;;;;9.10;3.40;;;;;;;;;;4973599;28;20410;-52
2022/06/14 01:00:19;;;;;;;4.27;3.30;;;;;;;;;;4959093;28;20433;-52
2022/06/14 01:02:50;;;;;;;7.57;3.67;;;;;;;;;;4972690;28;20421;-52
2022/06/14 01:05:19;;;;;;;8.03;4.00;;;;;;;;;;4958054;28;20894;-51
2022/06/14 01:07:46;;;;;;;7.37;4.47;;;;;;;;;;4973334;28;20417;-54
2022/06/14 01:10:15;;;;;;;3.20;3.00;;;;;;;;;;4973278;28;20754;-52
2022/06/14 01:12:43;;;;;;;4.90;3.40;;;;;;;;;;4972453;28;20863;-51
2022/06/14 01:15:10;;;;;;;4.37;3.47;;;;;;;;;;4972885;28;20413;-51
2022/06/14 01:17:43;;;;;;;5.30;3.20;;;;;;;;;;4973645;28;20412;-54
2022/06/14 01:20:11;;;;;;;3.47;3.17;;;;;;;;;;4973303;28;20425;-52
2022/06/14 01:22:37;;;;;;;10.83;3.57;;;;;;;;;;4972799;28;20432;-53
2022/06/14 01:25:03;;;;;;;4.50;3.30;;;;;;;;;;4972615;28;20461;-53
2022/06/14 01:27:30;;;;;;;3.57;3.27;;;;;;;;;;4973068;28;20417;-52
2022/06/14 01:30:00;;;;;;;4.90;3.50;;;;;;;;;;4973404;28;20488;-52
2022/06/14 01:32:28;;;;;;;4.67;3.20;;;;;;;;;;4972656;28;20432;-51
2022/06/14 01:34:58;;;;;;;4.53;3.30;;;;;;;;;;4972958;28;20487;-52
2022/06/14 01:37:24;;;;;;;3.60;3.30;;;;;;;;;;4972539;28;20437;-53
2022/06/14 01:39:50;;;;;;;8.20;4.10;;;;;;;;;;4973155;28;20509;-51
2022/06/14 01:42:36;;;;;;;7.63;4.43;;;;;;;;;;4972763;28;20507;-52
2022/06/14 01:45:11;;;;;;;11.00;4.37;;;;;;;;;;4972707;28;20455;-51
2022/06/14 01:47:55;;;;;;;14.20;5.60;;;;;;;;;;4972887;28;20952;-52
2022/06/14 01:53:35;;;;;;;7.00;5.30;;;;;;;;;;4972652;28;20424;-52
2022/06/14 01:56:07;;;;;;;6.40;5.30;;;;;;;;;;4972756;28;20923;-53
2022/06/14 01:58:33;;;;;;;8.27;5.00;;;;;;;;;;4961795;28;20863;-52
2022/06/14 02:01:19;;;;;;;6.97;5.90;;;;;;;;;;4961171;28;20410;-51
2022/06/14 02:06:41;;;;;;;10.00;6.00;;;;;;;;;;4972579;28;20536;-52
2022/06/14 02:09:14;;;;;;;10.47;6.00;;;;;;;;;;4972778;28;20416;-51
2022/06/14 02:11:40;;;;;;;8.57;5.73;;;;;;;;;;4972527;28;20905;-53
2022/06/14 02:14:32;;;;;;;11.57;6.67;;;;;;;;;;4972202;28;20433;-53
2022/06/14 02:17:01;;;;;;;14.70;6.63;;;;;;;;;;4942842;28;20421;-53
2022/06/14 02:19:33;;;;;;;8.53;5.13;;;;;;;;;;4972656;28;20939;-52
2022/06/14 02:22:04;;;;;;;11.43;5.53;;;;;;;;;;4973069;28;20405;-52
2022/06/14 02:24:37;;;;;;;7.37;4.80;;;;;;;;;;4971943;28;20449;-52
2022/06/14 02:27:09;;;;;;;4.23;3.83;;;;;;;;;;4972885;28;20405;-52
2022/06/14 02:29:37;;;;;;;4.50;3.80;;;;;;;;;;4972396;28;20449;-52
2022/06/14 02:32:07;;;;;;;4.67;3.83;;;;;;;;;;4972938;28;20480;-53
2022/06/14 02:34:36;;;;;;;5.43;3.93;;;;;;;;;;4972092;28;20644;-51
2022/06/14 02:37:05;;;;;;;3.70;3.40;;;;;;;;;;4972638;28;20428;-54
2022/06/14 02:39:36;;;;;;;5.30;3.50;;;;;;;;;;4972272;28;20483;-51
2022/06/14 02:42:08;;;;;;;7.10;3.60;;;;;;;;;;4972800;28;20908;-51
2022/06/14 02:44:37;;;;;;;9.20;3.80;;;;;;;;;;4972050;28;20503;-52
2022/06/14 02:47:03;;;;;;;3.90;3.60;;;;;;;;;;4972422;28;20787;-52
2022/06/14 02:49:31;;;;;;;7.70;3.60;;;;;;;;;;4972096;28;20530;-53
2022/06/14 02:52:02;;;;;;;4.67;3.50;;;;;;;;;;4972309;28;20424;-53
2022/06/14 02:54:31;;;;;;;5.13;3.57;;;;;;;;;;4971953;28;20447;-52
2022/06/14 02:56:58;;;;;;;5.93;4.33;;;;;;;;;;4972285;28;20429;-52
2022/06/14 02:59:34;;;;;;;9.80;4.20;;;;;;;;;;4972388;28;20933;-51
2022/06/14 03:02:02;;;;;;;6.77;4.47;;;;;;;;;;4972094;28;20415;-52
2022/06/14 03:04:31;;;;;;;7.70;4.03;;;;;;;;;;4972477;28;20865;-53
2022/06/14 03:07:09;;;;;;;3.83;3.37;;;;;;;;;;4972418;28;20893;-52
2022/06/14 03:09:36;;;;;;;4.20;3.80;;;;;;;;;;4975652;28;20905;-53
2022/06/14 03:12:05;;;;;;;3.70;3.40;;;;;;;;;;4975921;28;20448;-53
2022/06/14 03:14:43;;;;;;;4.70;3.70;;;;;;;;;;4975381;28;20437;-53
2022/06/14 03:17:15;;;;;;;10.20;4.07;;;;;;;;;;4975645;28;20417;-53
2022/06/14 03:19:44;;;;;;;7.40;4.27;;;;;;;;;;4975140;28;20421;-53
2022/06/14 03:22:23;;;;;;;5.00;4.20;;;;;;;;;;4975474;28;20423;-53
2022/06/14 03:24:55;;;;;;;9.50;4.50;;;;;;;;;;4974908;28;20460;-52
2022/06/14 03:27:24;;;;;;;7.67;3.50;;;;;;;;;;4975197;28;20435;-52
2022/06/14 03:29:54;;;;;;;6.53;4.03;;;;;;;;;;4975392;28;20403;-53
2022/06/14 03:32:23;;;;;;;6.17;4.30;;;;;;;;;;4975208;28;20476;-54
2022/06/14 03:34:51;;;;;;;5.13;3.73;;;;;;;;;;4975224;28;20448;-53
2022/06/14 03:37:17;;;;;;;6.13;4.40;;;;;;;;;;4975121;28;20539;-53
2022/06/14 03:39:45;;;;;;;5.47;3.70;;;;;;;;;;4975187;28;20508;-54
2022/06/14 03:42:12;;;;;;;6.40;4.07;;;;;;;;;;4974887;28;20461;-52
2022/06/14 03:44:38;;;;;;;5.20;4.13;;;;;;;;;;4974769;28;20444;-53
2022/06/14 03:47:10;;;;;;;6.77;3.87;;;;;;;;;;4974949;28;20421;-52
2022/06/14 03:49:37;;;;;;;8.93;4.77;;;;;;;;;;4974856;28;20413;-52
2022/06/14 03:52:39;;;;;;;6.37;4.20;;;;;;;;;;4974827;28;20480;-53
2022/06/14 03:55:08;;;;;;;7.10;4.50;;;;;;;;;;4873410;29;20440;-52
2022/06/14 03:57:54;;;;;;;8.87;5.83;;;;;;;;;;4957195;28;20435;-53
2022/06/14 04:00:47;;;;;;;5.27;4.80;;;;;;;;;;4974028;28;20423;-52
2022/06/14 04:03:21;;;;;;;6.73;5.10;;;;;;;;;;4973400;28;20469;-52
2022/06/14 04:05:53;;;;;;;7.93;5.17;;;;;;;;;;4974246;28;20515;-53
2022/06/14 04:08:31;;;;;;;6.50;4.60;;;;;;;;;;4973839;28;20419;-53
2022/06/14 04:10:57;;;;;;;8.33;5.73;;;;;;;;;;4974689;28;20433;-52
2022/06/14 04:13:35;;;;;;;9.23;5.40;;;;;;;;;;4974059;28;20472;-53
2022/06/14 04:16:09;;;;;;;11.13;5.80;;;;;;;;;;4974159;28;20487;-53
2022/06/14 04:18:40;;;;;;;18.70;6.73;;;;;;;;;;4974576;28;20405;-53
2022/06/14 04:21:09;;;;;;;12.23;6.77;;;;;;;;;;4974455;28;20453;-53
2022/06/14 04:23:37;;;;;;;15.33;7.10;;;;;;;;;;4974260;28;20483;-52
2022/06/14 04:26:18;;;;;;;18.77;6.77;;;;;;;;;;4973769;28;20453;-52
2022/06/14 04:28:50;;;;;;;10.03;6.27;;;;;;;;;;4961773;28;20905;-54
2022/06/14 04:31:34;;;;;;;17.93;7.87;;;;;;;;;;4974405;28;20756;-53
2022/06/14 04:34:03;;;;;;;23.13;8.33;;;;;;;;;;4973794;28;20944;-53
2022/06/14 04:36:36;;;;;;;19.60;7.57;;;;;;;;;;4974097;28;20456;-52
2022/06/14 04:39:07;;;;;;;16.87;8.07;;;;;;;;;;4974104;28;20921;-52
2022/06/14 04:41:52;;;;;;;16.60;8.10;;;;;;;;;;4974175;28;20885;-53
2022/06/14 04:44:25;;;;;;;21.60;8.63;;;;;;;;;;4973991;28;21019;-52
2022/06/14 04:46:58;;;;;;;17.00;10.57;;;;;;;;;;4974082;28;20408;-52
2022/06/14 04:49:33;;;;;;;18.80;8.90;;;;;;;;;;4974162;28;20397;-52
2022/06/14 04:52:02;;;;;;;14.13;7.83;;;;;;;;;;4974041;28;20496;-52
2022/06/14 04:54:33;;;;;;;14.10;8.30;;;;;;;;;;4973794;28;20413;-52
2022/06/14 04:57:19;;;;;;;17.43;8.23;;;;;;;;;;4974045;28;20405;-52
2022/06/14 04:59:57;;;;;;;11.97;7.50;;;;;;;;;;4973901;28;20969;-53
2022/06/14 05:02:30;;;;;;;10.60;7.30;;;;;;;;;;4973566;28;20443;-54
2022/06/14 05:05:00;;;;;;;11.53;7.80;;;;;;;;;;4973813;28;20456;-51
2022/06/14 05:07:55;;;;;;;16.17;7.63;;;;;;;;;;4973939;28;20405;-53
2022/06/14 05:10:27;;;;;;;20.03;7.93;;;;;;;;;;4957406;28;20417;-53
2022/06/14 05:12:56;;;;;;;14.87;7.87;;;;;;;;;;4973475;28;20421;-52
2022/06/14 05:15:25;;;;;;;15.30;8.30;;;;;;;;;;4973729;28;20405;-53
2022/06/14 05:17:54;;;;;;;16.73;7.17;;;;;;;;;;4973640;28;20409;-53
2022/06/14 05:20:23;;;;;;;18.07;8.10;;;;;;;;;;4973403;28;20451;-52
2022/06/14 05:22:59;;;;;;;11.43;7.13;;;;;;;;;;4972005;28;20437;-53
2022/06/14 05:25:31;;;;;;;22.13;6.37;;;;;;;;;;4973524;28;20448;-52
2022/06/14 05:27:57;;;;;;;11.80;6.87;;;;;;;;;;4973764;28;20405;-53
2022/06/14 05:30:37;;;;;;;10.17;6.70;;;;;;;;;;4973098;28;20767;-54
2022/06/14 05:33:03;;;;;;;15.27;7.20;;;;;;;;;;4973174;28;20600;-53
2022/06/14 05:35:32;;;;;;;9.87;6.43;;;;;;;;;;4973509;28;20452;-52
2022/06/14 05:38:17;;;;;;;13.93;7.40;;;;;;;;;;4973390;28;20773;-53
2022/06/14 05:40:43;;;;;;;10.83;6.70;;;;;;;;;;4973442;28;20401;-54
2022/06/14 05:43:24;;;;;;;11.07;7.50;;;;;;;;;;4972951;28;20451;-52
2022/06/14 05:45:52;;;;;;;11.20;6.50;;;;;;;;;;4972047;28;20972;-53
2022/06/14 05:48:21;;;;;;;8.40;6.33;;;;;;;;;;4973425;28;20413;-54
2022/06/14 05:50:50;;;;;;;13.90;6.50;;;;;;;;;;4972303;28;20457;-53
2022/06/14 05:53:30;;;;;;;11.00;6.70;;;;;;;;;;4973197;28;20947;-54
2022/06/14 05:55:58;;;;;;;11.63;6.50;;;;;;;;;;4989882;28;20425;-53
2022/06/14 05:58:28;;;;;;;11.43;5.87;;;;;;;;;;4991913;28;20413;-54
2022/06/14 06:00:56;;;;;;;26.77;6.97;;;;;;;;;;4992569;28;20408;-53
2022/06/14 06:03:41;;;;;;;11.77;6.60;;;;;;;;;;4992493;28;20421;-53
2022/06/14 06:06:09;;;;;;;6.70;5.47;;;;;;;;;;4992576;28;20461;-53
2022/06/14 06:08:39;;;;;;;10.23;5.03;;;;;;;;;;4992813;28;20409;-53
2022/06/14 06:11:19;;;;;;;8.23;4.60;;;;;;;;;;4975233;28;20405;-53
2022/06/14 06:13:51;;;;;;;9.27;5.47;;;;;;;;;;4992523;28;20436;-53
2022/06/14 06:16:21;;;;;;;16.20;5.50;;;;;;;;;;4991258;28;20404;-53
2022/06/14 06:18:54;;;;;;;6.50;4.47;;;;;;;;;;4992147;28;20744;-53
2022/06/14 06:21:24;;;;;;;9.90;5.33;;;;;;;;;;4992201;28;20438;-54
2022/06/14 06:23:55;;;;;;;7.67;4.63;;;;;;;;;;4992041;28;20431;-53
2022/06/14 06:26:22;;;;;;;8.40;5.10;;;;;;;;;;4992258;28;20458;-53
2022/06/14 06:28:54;;;;;;;7.03;5.40;;;;;;;;;;4992252;28;20497;-54
2022/06/14 06:31:30;;;;;;;9.83;5.20;;;;;;;;;;4992100;28;20982;-53
2022/06/14 06:33:57;;;;;;;10.13;5.80;;;;;;;;;;4991850;28;20817;-53
2022/06/14 06:36:23;;;;;;;8.80;6.20;;;;;;;;;;4991979;28;20982;-53
2022/06/14 06:39:08;;;;;;;8.83;5.30;;;;;;;;;;4992195;28;20506;-53
2022/06/14 06:41:49;;;;;;;10.40;5.40;;;;;;;;;;4991899;28;20381;-53
2022/06/14 06:44:21;;;;;;;9.93;5.27;;;;;;;;;;4995524;28;20462;-53
2022/06/14 06:46:52;;;;;;;16.40;7.10;;;;;;;;;;4995821;28;20428;-53
2022/06/14 06:49:20;;;;;;;10.90;5.57;;;;;;;;;;4995803;28;20425;-54
2022/06/14 06:51:48;;;;;;;10.40;5.17;;;;;;;;;;4995720;28;20402;-53
2022/06/14 06:54:17;;;;;;;6.30;4.27;;;;;;;;;;4995337;28;20416;-53
2022/06/14 06:56:45;;;;;;;13.80;4.97;;;;;;;;;;4995685;28;20410;-53
2022/06/14 06:59:16;;;;;;;15.83;4.30;;;;;;;;;;4995598;28;20416;-54
2022/06/14 07:01:42;;;;;;;9.83;4.10;;;;;;;;;;4995485;28;20386;-53
2022/06/14 07:05:03;;;;;;;10.07;4.53;;;;;;;;;;4995248;28;20424;-53
2022/06/14 07:07:20;;;;;;;8.23;4.77;;;;;;;;;;4995314;28;20423;-54
2022/06/14 07:09:49;;;;;;;9.53;4.17;;;;;;;;;;4995721;28;20396;-53
2022/06/14 07:12:20;;;;;;;14.93;6.80;;;;;;;;;;4995351;28;20377;-53
2022/06/14 07:14:50;;;;;;;8.13;4.60;;;;;;;;;;4995120;28;20938;-53
2022/06/14 07:17:20;;;;;;;8.17;3.90;;;;;;;;;;4995144;28;20932;-53
2022/06/14 07:19:51;;;;;;;8.60;3.60;;;;;;;;;;4995281;28;20400;-53
2022/06/14 07:22:20;;;;;;;9.33;4.50;;;;;;;;;;4995082;28;20371;-53
2022/06/14 07:24:52;;;;;;;9.07;4.00;;;;;;;;;;4995015;28;20427;-54
2022/06/14 07:27:21;;;;;;;11.90;5.00;;;;;;;;;;4995028;28;20379;-53
2022/06/14 07:29:55;;;;;;;9.13;4.27;;;;;;;;;;4995011;28;20819;-54
2022/06/14 07:32:25;;;;;;;7.97;4.63;;;;;;;;;;4994923;28;20461;-54
2022/06/14 07:34:52;;;;;;;8.90;3.70;;;;;;;;;;4995066;28;20415;-54
2022/06/14 07:37:36;;;;;;;12.93;4.40;;;;;;;;;;4994849;28;20407;-53
2022/06/14 07:40:08;;;;;;;16.47;5.13;;;;;;;;;;4994639;28;20403;-53
2022/06/14 07:42:38;;;;;;;5.90;3.90;;;;;;;;;;4994456;28;20831;-53
2022/06/14 07:45:07;;;;;;;8.10;4.57;;;;;;;;;;4994666;28;20448;-53
2022/06/14 07:47:33;;;;;;;6.40;3.80;;;;;;;;;;4994738;28;20402;-53
2022/06/14 07:50:14;;;;;;;4.27;3.40;;;;;;;;;;4994587;28;20933;-55
2022/06/14 07:52:49;;;;;;;7.93;3.60;;;;;;;;;;4994669;28;20383;-53
2022/06/14 07:55:22;;;;;;;5.97;3.47;;;;;;;;;;4994532;28;20461;-53
2022/06/14 07:57:51;;;;;;;8.83;3.57;;;;;;;;;;4994582;28;20935;-54
2022/06/14 08:03:15;;;;;;;6.07;2.57;;;;;;;;;;4994448;28;20422;-54
2022/06/14 08:05:43;;;;;;;8.70;3.50;;;;;;;;;;4994461;28;20548;-53
2022/06/14 08:08:12;;;;;;;8.13;3.40;;;;;;;;;;4994398;28;20404;-54
2022/06/14 08:10:42;;;;;;;6.93;3.57;;;;;;;;;;4994337;28;20403;-54
2022/06/14 08:13:13;;;;;;;9.27;4.17;;;;;;;;;;4993974;28;20501;-54
2022/06/14 08:15:44;;;;;;;7.80;4.13;;;;;;;;;;4994092;28;20880;-54
2022/06/14 08:18:29;;;;;;;8.03;3.60;;;;;;;;;;4994145;28;20412;-54
2022/06/14 08:21:01;;;;;;;4.13;3.33;;;;;;;;;;4994040;28;20923;-54
2022/06/14 08:23:32;;;;;;;3.83;3.23;;;;;;;;;;4993891;28;20427;-54
2022/06/14 08:26:03;;;;;;;6.50;3.33;;;;;;;;;;4993932;28;21029;-54
2022/06/14 08:28:46;;;;;;;15.90;3.90;;;;;;;;;;4994014;28;20473;-54
2022/06/14 08:31:30;;;;;;;7.47;3.40;;;;;;;;;;4993852;28;20829;-55
2022/06/14 08:34:04;;;;;;;5.47;2.70;;;;;;;;;;4993538;28;20420;-55
2022/06/14 08:36:48;;;;;;;4.83;2.80;;;;;;;;;;4993696;28;20942;-54
2022/06/14 08:39:18;;;;;;;5.23;2.73;;;;;;;;;;4993910;28;20917;-54
2022/06/14 08:41:47;;;;;;;5.10;3.40;;;;;;;;;;4993555;28;20449;-54
2022/06/14 08:44:25;;;;;;;3.40;3.00;;;;;;;;;;4986841;28;20509;-55
2022/06/14 08:46:57;;;;;;;8.57;3.90;;;;;;;;;;4974096;28;20539;-55
2022/06/14 08:49:29;;;;;;;5.97;3.17;;;;;;;;;;4974037;28;20396;-54
2022/06/14 08:52:28;;;;;;;10.57;4.23;;;;;;;;;;4974113;28;20475;-54
2022/06/14 08:55:06;;;;;;;8.30;3.40;;;;;;;;;;4941297;28;20419;-54
2022/06/14 08:57:54;;;;;;;10.33;3.70;;;;;;;;;;4974118;28;20407;-54
2022/06/14 09:00:31;;;;;;;8.47;4.07;;;;;;;;;;4973696;28;20403;-55
2022/06/14 09:03:06;;;;;;;11.30;3.70;;;;;;;;;;4973591;28;20462;-55
2022/06/14 09:05:32;;;;;;;8.13;3.10;;;;;;;;;;4972859;28;20487;-55
2022/06/14 09:08:17;;;;;;;5.37;2.63;;;;;;;;;;4973691;28;20409;-55
2022/06/14 09:11:00;;;;;;;6.30;3.20;;;;;;;;;;4972589;28;20920;-55
2022/06/14 09:13:35;;;;;;;4.10;2.33;;;;;;;;;;4973332;28;20448;-55
2022/06/14 09:16:19;;;;;;;4.23;2.50;;;;;;;;;;4973629;28;20524;-56
2022/06/14 09:18:48;;;;;;;6.77;2.90;;;;;;;;;;4973574;28;20404;-56
2022/06/14 09:21:33;;;;;;;5.20;2.83;;;;;;;;;;4973281;28;20401;-55
2022/06/14 09:24:12;;;;;;;3.30;2.67;;;;;;;;;;4953899;29;20463;-55
2022/06/14 09:26:44;;;;;;;4.70;3.10;;;;;;;;;;4954471;28;20543;-55
2022/06/14 09:29:22;;;;;;;4.00;2.67;;;;;;;;;;4966676;28;20457;-55
2022/06/14 09:32:07;;;;;;;6.93;3.20;;;;;;;;;;4970330;28;20428;-54
2022/06/14 09:34:33;;;;;;;8.80;3.67;;;;;;;;;;4970081;28;20429;-54
2022/06/14 09:37:15;;;;;;;3.80;2.60;;;;;;;;;;4974574;28;20464;-55
2022/06/14 09:40:04;;;;;;;4.30;2.90;;;;;;;;;;4974515;28;20453;-55
2022/06/14 09:42:49;;;;;;;10.00;3.57;;;;;;;;;;4964449;28;20421;-54
2022/06/14 09:45:37;;;;;;;3.80;2.50;;;;;;;;;;4973392;28;20468;-55
2022/06/14 09:48:22;;;;;;;4.40;2.73;;;;;;;;;;4974417;28;20421;-54
2022/06/14 09:51:17;;;;;;;5.70;2.97;;;;;;;;;;4974305;28;20448;-55
2022/06/14 09:54:02;;;;;;;6.20;3.23;;;;;;;;;;4903903;28;20440;-55
2022/06/14 09:56:35;;;;;;;5.97;3.10;;;;;;;;;;4954945;28;20404;-54
2022/06/14 09:59:01;;;;;;;7.13;2.80;;;;;;;;;;4974408;28;20446;-55
2022/06/14 10:01:36;;;;;;;6.50;2.70;;;;;;;;;;4973544;28;20432;-55
2022/06/14 10:04:01;;;;;;;6.00;2.93;;;;;;;;;;4973147;28;20186;-55
2022/06/14 10:06:48;;;;;;;6.03;2.70;;;;;;;;;;4974205;28;21039;-54
2022/06/14 10:09:29;;;;;;;6.17;2.97;;;;;;;;;;4974302;28;20464;-55
2022/06/14 10:11:55;;;;;;;5.23;2.87;;;;;;;;;;4972992;28;20397;-53
2022/06/14 10:14:26;;;;;;;5.77;3.63;;;;;;;;;;4974913;28;20420;-54
2022/06/14 10:17:11;;;;;;;5.00;3.10;;;;;;;;;;4974212;28;20419;-53
2022/06/14 10:19:55;;;;;;;5.90;2.40;;;;;;;;;;4977485;28;20417;-55
2022/06/14 10:22:29;;;;;;;4.20;2.70;;;;;;;;;;4976393;28;20404;-54
2022/06/14 10:25:01;;;;;;;4.77;2.60;;;;;;;;;;4978020;28;20408;-55
2022/06/14 10:30:33;;;;;;;4.17;2.80;;;;;;;;;;4977239;28;20420;-55
2022/06/14 10:33:02;;;;;;;6.80;3.03;;;;;;;;;;4975194;28;20440;-55
2022/06/14 10:35:33;;;;;;;4.47;2.70;;;;;;;;;;4974462;28;20939;-56
2022/06/14 10:38:14;;;;;;;6.27;2.90;;;;;;;;;;4960772;28;20432;-54
2022/06/14 10:40:45;;;;;;;5.57;3.43;;;;;;;;;;4976267;28;20487;-55
2022/06/14 10:43:31;;;;;;;5.10;3.50;;;;;;;;;;4976975;28;20791;-55
2022/06/14 10:46:01;;;;;;;7.47;3.20;;;;;;;;;;4978834;28;20542;-54
2022/06/14 10:48:46;;;;;;;12.10;3.50;;;;;;;;;;4971324;28;20425;-54
2022/06/14 10:51:32;;;;;;;5.97;2.90;;;;;;;;;;4973886;28;20400;-55
2022/06/14 10:54:25;;;;;;;4.10;2.90;;;;;;;;;;4975888;28;20417;-54
2022/06/14 10:57:15;;;;;;;5.37;2.70;;;;;;;;;;4953548;28;20491;-55
2022/06/14 11:00:03;;;;;;;6.93;2.70;;;;;;;;;;4976070;28;20826;-54
2022/06/14 11:02:45;;;;;;;7.20;3.37;;;;;;;;;;4975635;28;20416;-54
2022/06/14 11:05:29;;;;;;;6.63;3.70;;;;;;;;;;4975952;28;20448;-54
2022/06/14 11:08:09;;;;;;;5.23;3.30;;;;;;;;;;4976035;28;20393;-55
2022/06/14 11:10:53;;;;;;;7.23;4.27;;;;;;;;;;4976296;28;20515;-56
2022/06/14 11:13:22;;;;;;;4.20;2.93;;;;;;;;;;4969684;28;20428;-55
2022/06/14 11:15:51;;;;;;;4.90;3.20;;;;;;;;;;4976145;28;20408;-55
2022/06/14 11:18:23;;;;;;;6.33;3.10;;;;;;;;;;4975930;28;20869;-55
2022/06/14 11:20:55;;;;;;;7.57;3.20;;;;;;;;;;4975525;28;20767;-55
2022/06/14 11:23:28;;;;;;;4.90;3.20;;;;;;;;;;4975369;28;20465;-55
2022/06/14 11:26:13;;;;;;;6.40;3.70;;;;;;;;;;4975633;28;20970;-55
2022/06/14 11:28:54;;;;;;;7.00;3.80;;;;;;;;;;4957742;28;20505;-55
2022/06/14 11:31:38;;;;;;;4.60;3.60;;;;;;;;;;4975826;28;20499;-55
2022/06/14 11:34:23;;;;;;;4.70;3.33;;;;;;;;;;4975425;28;20790;-55
2022/06/14 11:37:04;;;;;;;6.67;3.40;;;;;;;;;;4975435;28;20475;-55
2022/06/14 11:39:33;;;;;;;4.40;2.93;;;;;;;;;;4975602;28;20405;-56
2022/06/14 11:42:01;;;;;;;3.50;2.50;;;;;;;;;;4975410;28;20409;-55
2022/06/14 11:44:37;;;;;;;3.93;2.60;;;;;;;;;;4974918;28;20424;-54
2022/06/14 11:47:26;;;;;;;6.73;3.90;;;;;;;;;;4975192;28;20508;-55
2022/06/14 11:49:56;;;;;;;6.73;3.10;;;;;;;;;;4975002;28;20405;-55
2022/06/14 11:52:40;;;;;;;5.10;3.00;;;;;;;;;;4975245;28;20397;-56
2022/06/14 11:55:13;;;;;;;6.67;3.17;;;;;;;;;;4975021;28;20401;-55
2022/06/14 11:57:52;;;;;;;3.60;3.20;;;;;;;;;;4975021;28;20828;-56
2022/06/14 12:00:23;;;;;;;4.37;3.00;;;;;;;;;;4974804;28;20397;-54
2022/06/14 12:02:56;;;;;;;4.77;3.33;;;;;;;;;;4974942;28;20483;-53
2022/06/14 12:05:35;;;;;;;3.10;2.80;;;;;;;;;;4974867;28;20844;-54
2022/06/14 12:08:29;;;;;;;4.53;3.10;;;;;;;;;;4974540;28;20435;-55
2022/06/14 12:10:55;;;;;;;5.73;3.37;;;;;;;;;;4974686;28;20404;-54
2022/06/14 12:13:50;;;;;;;6.77;3.43;;;;;;;;;;4974483;28;20429;-55
2022/06/14 12:16:16;;;;;;;5.97;3.40;;;;;;;;;;4955735;28;20473;-54
2022/06/14 12:18:47;;;;;;;3.77;2.50;;;;;;;;;;4975078;28;20811;-54
2022/06/14 12:21:24;;;;;;;5.10;2.83;;;;;;;;;;4974486;28;20181;-55
2022/06/14 12:23:52;;;;;;;8.20;4.20;;;;;;;;;;4974288;28;20515;-55
2022/06/14 12:26:34;;;;;;;10.30;3.90;;;;;;;;;;4974409;28;20495;-54
2022/06/14 12:29:07;;;;;;;4.17;2.70;;;;;;;;;;4974504;28;20413;-56
2022/06/14 12:31:51;;;;;;;4.43;3.07;;;;;;;;;;4974235;28;20861;-54
2022/06/14 12:34:20;;;;;;;3.60;3.30;;;;;;;;;;4974218;28;20500;-56
2022/06/14 12:37:05;;;;;;;5.50;3.20;;;;;;;;;;4974384;28;20506;-55
2022/06/14 12:39:47;;;;;;;5.03;2.97;;;;;;;;;;4974255;28;20409;-54
2022/06/14 12:42:19;;;;;;;6.00;3.60;;;;;;;;;;4974262;28;20416;-55
2022/06/14 12:44:55;;;;;;;5.80;3.47;;;;;;;;;;4974145;28;20419;-55
2022/06/14 12:47:28;;;;;;;5.23;2.77;;;;;;;;;;4974226;28;20408;-54
2022/06/14 12:49:56;;;;;;;3.50;2.70;;;;;;;;;;4974092;28;20409;-55
2022/06/14 12:52:30;;;;;;;5.20;3.40;;;;;;;;;;4973785;28;20408;-54
2022/06/14 12:55:05;;;;;;;7.17;3.00;;;;;;;;;;4972351;28;20441;-55
2022/06/14 12:57:40;;;;;;;4.80;2.80;;;;;;;;;;4973970;28;20488;-54
2022/06/14 13:00:21;;;;;;;7.53;3.70;;;;;;;;;;4973574;28;20813;-55
2022/06/14 13:02:53;;;;;;;3.17;2.87;;;;;;;;;;4971603;28;20428;-54
2022/06/14 13:05:21;;;;;;;6.97;3.17;;;;;;;;;;4973518;28;20452;-56
2022/06/14 13:07:57;;;;;;;3.37;2.70;;;;;;;;;;4973715;28;20890;-55
2022/06/14 13:10:42;;;;;;;4.20;2.80;;;;;;;;;;4973707;28;20397;-56
2022/06/14 13:13:20;;;;;;;7.30;2.53;;;;;;;;;;4972928;28;20420;-55
2022/06/14 13:15:46;;;;;;;7.53;2.97;;;;;;;;;;4973889;28;20649;-54
2022/06/14 13:18:17;;;;;;;4.80;3.40;;;;;;;;;;4973793;28;20960;-55
2022/06/14 13:20:50;;;;;;;4.80;2.90;;;;;;;;;;4973557;28;20188;-55
2022/06/14 13:23:21;;;;;;;4.50;2.77;;;;;;;;;;4973261;28;20464;-55
2022/06/14 13:26:14;;;;;;;5.40;3.60;;;;;;;;;;4973276;28;20487;-54
2022/06/14 13:28:50;;;;;;;4.00;2.90;;;;;;;;;;4973534;28;20428;-54
2022/06/14 13:31:37;;;;;;;5.90;3.10;;;;;;;;;;4973523;28;20397;-55
2022/06/14 13:34:20;;;;;;;4.37;3.23;;;;;;;;;;4972989;28;20413;-55
2022/06/14 13:36:59;;;;;;;7.70;3.57;;;;;;;;;;4973228;28;20424;-55
2022/06/14 13:39:37;;;;;;;4.17;3.30;;;;;;;;;;4973351;28;20429;-54
2022/06/14 13:42:14;;;;;;;4.80;2.70;;;;;;;;;;4973313;28;20459;-55
2022/06/14 13:44:48;;;;;;;5.87;3.60;;;;;;;;;;4973026;28;20495;-56
2022/06/14 13:47:52;;;;;;;4.10;3.40;;;;;;;;;;4973537;28;20807;-55
2022/06/14 13:50:18;;;;;;;4.93;3.00;;;;;;;;;;4913549;29;20407;-54
2022/06/14 13:52:47;;;;;;;3.33;3.03;;;;;;;;;;4912600;29;20896;-55
2022/06/14 13:55:13;;;;;;;5.00;3.20;;;;;;;;;;4942916;28;20420;-55
2022/06/14 13:57:59;;;;;;;5.53;3.30;;;;;;;;;;4973052;28;20401;-55
2022/06/14 14:00:45;;;;;;;5.23;2.67;;;;;;;;;;4973246;28;20845;-56
2022/06/14 14:03:26;;;;;;;3.90;2.20;;;;;;;;;;4942725;28;20428;-54
2022/06/14 14:06:11;;;;;;;6.13;3.40;;;;;;;;;;4972954;28;20452;-55
2022/06/14 14:08:55;;;;;;;5.47;3.00;;;;;;;;;;4972890;28;20889;-54
2022/06/14 14:11:31;;;;;;;7.30;2.83;;;;;;;;;;4972889;28;20397;-54
2022/06/14 14:14:08;;;;;;;7.17;3.43;;;;;;;;;;4972644;28;20427;-55
2022/06/14 14:16:41;;;;;;;6.70;2.57;;;;;;;;;;4973032;28;20402;-55
2022/06/14 14:19:07;;;;;;;4.80;2.87;;;;;;;;;;4973384;28;20421;-54
2022/06/14 14:21:43;;;;;;;7.07;3.43;;;;;;;;;;4971495;28;20467;-54
2022/06/14 14:24:09;;;;;;;7.93;3.20;;;;;;;;;;4972484;28;20672;-55
2022/06/14 14:26:38;;;;;;;11.20;2.67;;;;;;;;;;4972758;28;20538;-54
2022/06/14 14:29:04;;;;;;;4.53;2.63;;;;;;;;;;4972819;28;20497;-56
2022/06/14 14:31:30;;;;;;;4.43;2.93;;;;;;;;;;4972529;28;20397;-55
2022/06/14 14:34:02;;;;;;;3.40;2.60;;;;;;;;;;4972413;28;20472;-55
2022/06/14 14:36:28;;;;;;;4.63;2.80;;;;;;;;;;4972665;28;20185;-54
2022/06/14 14:39:00;;;;;;;6.10;3.17;;;;;;;;;;4972710;28;20975;-55
2022/06/14 14:41:37;;;;;;;5.30;2.57;;;;;;;;;;4972630;28;20409;-54
2022/06/14 14:44:06;;;;;;;4.37;2.63;;;;;;;;;;4972507;28;20421;-55
2022/06/14 14:46:33;;;;;;;4.33;3.10;;;;;;;;;;4972568;28;20521;-54
2022/06/14 14:49:00;;;;;;;5.03;3.43;;;;;;;;;;4972634;28;20464;-55
2022/06/14 14:51:27;;;;;;;3.87;2.90;;;;;;;;;;4972725;28;20511;-54
2022/06/14 14:54:11;;;;;;;5.73;3.33;;;;;;;;;;4972309;28;20503;-54
2022/06/14 14:56:51;;;;;;;11.07;3.30;;;;;;;;;;4972643;28;20404;-55
2022/06/14 14:59:29;;;;;;;4.80;3.37;;;;;;;;;;4972612;28;20774;-56
2022/06/14 15:07:47;;;;;;;4.63;3.63;;;;;;;;;;4976360;28;20473;-55
2022/06/14 15:10:15;;;;;;;5.10;3.10;;;;;;;;;;4975973;28;20828;-55
2022/06/14 15:12:47;;;;;;;4.23;3.20;;;;;;;;;;4975781;28;20483;-54
2022/06/14 15:15:16;;;;;;;11.50;3.50;;;;;;;;;;4975995;28;20475;-54
2022/06/14 15:20:34;;;;;;;7.97;4.23;;;;;;;;;;4956552;29;20486;-55
2022/06/14 15:23:01;;;;;;;3.33;2.60;;;;;;;;;;4956279;29;20441;-56
2022/06/14 15:25:29;;;;;;;3.57;2.30;;;;;;;;;;4956407;29;20466;-56
2022/06/14 15:28:04;;;;;;;8.47;3.80;;;;;;;;;;4956308;28;20521;-55
2022/06/14 15:30:41;;;;;;;5.33;3.53;;;;;;;;;;4956111;29;20401;-55
2022/06/14 15:33:18;;;;;;;7.43;4.10;;;;;;;;;;4956441;29;20397;-56
2022/06/14 15:35:48;;;;;;;5.40;2.83;;;;;;;;;;4956243;29;20417;-55
2022/06/14 15:38:14;;;;;;;6.23;3.37;;;;;;;;;;4956105;28;20422;-55
2022/06/14 15:40:41;;;;;;;4.40;3.40;;;;;;;;;;4956264;29;20406;-55